sensor_id;sensor_type;location;lat;lon;timestamp;P1;durP1;ratioP1;P2;durP2;ratioP2
6442;SDS011;3254;47.372;8.512;2023-02-01T00:01:49;7.90;;;5.67;;
6442;SDS011;3254;47.372;8.512;2023-02-01T00:04:14;6.73;;;5.20;;
6442;SDS011;3254;47.372;8.512;2023-02-01T00:06:40;7.57;;;5.30;;
6442;SDS011;3254;47.372;8.512;2023-02-01T00:09:05;6.57;;;5.20;;
6442;SDS011;3254;47.372;8.512;2023-02-01T00:11:31;5.40;;;5.00;;
6442;SDS011;3254;47.372;8.512;2023-02-01T00:13:57;6.10;;;5.30;;
6442;SDS011;3254;47.372;8.512;2023-02-01T00:16:23;5.33;;;4.87;;
6442;SDS011;3254;47.372;8.512;2023-02-01T00:18:56;8.90;;;5.18;;
6442;SDS011;3254;47.372;8.512;2023-02-01T00:21:29;9.73;;;5.00;;
6442;SDS011;3254;47.372;8.512;2023-02-01T00:23:56;6.47;;;5.57;;
6442;SDS011;3254;47.372;8.512;2023-02-01T00:26:32;6.30;;;5.68;;
6442;SDS011;3254;47.372;8.512;2023-02-01T00:29:00;7.03;;;5.85;;
6442;SDS011;3254;47.372;8.512;2023-02-01T00:31:27;5.43;;;5.00;;
6442;SDS011;3254;47.372;8.512;2023-02-01T00:33:55;8.20;;;6.35;;
6442;SDS011;3254;47.372;8.512;2023-02-01T00:36:21;6.40;;;5.20;;
6442;SDS011;3254;47.372;8.512;2023-02-01T00:38:46;8.63;;;5.63;;
6442;SDS011;3254;47.372;8.512;2023-02-01T00:41:13;9.20;;;6.03;;
6442;SDS011;3254;47.372;8.512;2023-02-01T00:43:40;9.13;;;6.10;;
6442;SDS011;3254;47.372;8.512;2023-02-01T00:46:06;7.75;;;5.60;;
6442;SDS011;3254;47.372;8.512;2023-02-01T00:48:33;7.55;;;5.80;;
6442;SDS011;3254;47.372;8.512;2023-02-01T00:51:01;9.52;;;6.30;;
6442;SDS011;3254;47.372;8.512;2023-02-01T00:53:29;6.63;;;5.70;;
6442;SDS011;3254;47.372;8.512;2023-02-01T00:55:54;7.63;;;5.73;;
6442;SDS011;3254;47.372;8.512;2023-02-01T00:58:21;12.32;;;5.75;;
6442;SDS011;3254;47.372;8.512;2023-02-01T01:00:48;9.15;;;6.63;;
6442;SDS011;3254;47.372;8.512;2023-02-01T01:03:14;10.97;;;6.50;;
6442;SDS011;3254;47.372;8.512;2023-02-01T01:05:46;5.68;;;5.07;;
6442;SDS011;3254;47.372;8.512;2023-02-01T01:08:13;11.60;;;5.85;;
6442;SDS011;3254;47.372;8.512;2023-02-01T01:10:39;6.63;;;5.80;;
6442;SDS011;3254;47.372;8.512;2023-02-01T01:13:06;8.17;;;6.37;;
6442;SDS011;3254;47.372;8.512;2023-02-01T01:15:39;6.78;;;6.07;;
6442;SDS011;3254;47.372;8.512;2023-02-01T01:18:06;9.00;;;6.20;;
6442;SDS011;3254;47.372;8.512;2023-02-01T01:20:36;7.53;;;6.60;;
6442;SDS011;3254;47.372;8.512;2023-02-01T01:23:05;7.57;;;6.72;;
6442;SDS011;3254;47.372;8.512;2023-02-01T01:25:32;9.20;;;6.93;;
6442;SDS011;3254;47.372;8.512;2023-02-01T01:28:05;6.63;;;5.45;;
6442;SDS011;3254;47.372;8.512;2023-02-01T01:30:36;6.57;;;5.85;;
6442;SDS011;3254;47.372;8.512;2023-02-01T01:33:02;6.67;;;5.80;;
6442;SDS011;3254;47.372;8.512;2023-02-01T01:35:28;8.70;;;6.17;;
6442;SDS011;3254;47.372;8.512;2023-02-01T01:37:55;6.60;;;5.40;;
6442;SDS011;3254;47.372;8.512;2023-02-01T01:40:23;7.25;;;5.45;;
6442;SDS011;3254;47.372;8.512;2023-02-01T01:42:48;5.77;;;5.27;;
6442;SDS011;3254;47.372;8.512;2023-02-01T01:47:47;5.57;;;5.10;;
6442;SDS011;3254;47.372;8.512;2023-02-01T01:50:17;5.47;;;4.90;;
6442;SDS011;3254;47.372;8.512;2023-02-01T01:52:49;8.35;;;5.78;;
6442;SDS011;3254;47.372;8.512;2023-02-01T01:55:19;8.48;;;5.65;;
6442;SDS011;3254;47.372;8.512;2023-02-01T01:57:49;7.00;;;5.55;;
6442;SDS011;3254;47.372;8.512;2023-02-01T02:00:19;5.85;;;5.30;;
6442;SDS011;3254;47.372;8.512;2023-02-01T02:02:46;9.00;;;5.15;;
6442;SDS011;3254;47.372;8.512;2023-02-01T02:05:16;10.45;;;6.05;;
6442;SDS011;3254;47.372;8.512;2023-02-01T02:07:45;5.35;;;4.60;;
6442;SDS011;3254;47.372;8.512;2023-02-01T02:10:14;10.90;;;5.80;;
6442;SDS011;3254;47.372;8.512;2023-02-01T02:12:42;5.85;;;5.35;;
6442;SDS011;3254;47.372;8.512;2023-02-01T02:15:10;5.93;;;5.32;;
6442;SDS011;3254;47.372;8.512;2023-02-01T02:29:16;8.98;;;5.60;;
6442;SDS011;3254;47.372;8.512;2023-02-01T02:34:32;7.55;;;5.32;;
6442;SDS011;3254;47.372;8.512;2023-02-01T02:40:02;5.80;;;5.30;;
6442;SDS011;3254;47.372;8.512;2023-02-01T02:46:11;6.88;;;5.55;;
6442;SDS011;3254;47.372;8.512;2023-02-01T02:49:04;8.02;;;5.20;;
6442;SDS011;3254;47.372;8.512;2023-02-01T02:51:40;7.28;;;6.13;;
6442;SDS011;3254;47.372;8.512;2023-02-01T02:54:33;6.95;;;6.25;;
6442;SDS011;3254;47.372;8.512;2023-02-01T02:57:16;7.03;;;5.85;;
6442;SDS011;3254;47.372;8.512;2023-02-01T03:00:24;6.80;;;5.55;;
6442;SDS011;3254;47.372;8.512;2023-02-01T03:03:12;6.30;;;5.70;;
6442;SDS011;3254;47.372;8.512;2023-02-01T03:05:56;7.90;;;6.68;;
6442;SDS011;3254;47.372;8.512;2023-02-01T03:08:23;6.47;;;5.87;;
6442;SDS011;3254;47.372;8.512;2023-02-01T03:21:10;8.20;;;6.25;;
6442;SDS011;3254;47.372;8.512;2023-02-01T03:23:41;11.35;;;6.82;;
6442;SDS011;3254;47.372;8.512;2023-02-01T03:26:10;9.32;;;6.25;;
6442;SDS011;3254;47.372;8.512;2023-02-01T03:28:41;12.25;;;6.32;;
6442;SDS011;3254;47.372;8.512;2023-02-01T03:31:12;6.70;;;6.10;;
6442;SDS011;3254;47.372;8.512;2023-02-01T03:33:39;9.70;;;6.30;;
6442;SDS011;3254;47.372;8.512;2023-02-01T03:38:46;7.82;;;6.05;;
6442;SDS011;3254;47.372;8.512;2023-02-01T03:41:27;7.45;;;6.45;;
6442;SDS011;3254;47.372;8.512;2023-02-01T03:44:13;9.70;;;6.75;;
6442;SDS011;3254;47.372;8.512;2023-02-01T03:46:57;10.65;;;6.32;;
6442;SDS011;3254;47.372;8.512;2023-02-01T03:49:34;17.33;;;7.63;;
6442;SDS011;3254;47.372;8.512;2023-02-01T03:52:10;9.68;;;6.90;;
6442;SDS011;3254;47.372;8.512;2023-02-01T03:54:39;9.70;;;6.57;;
6442;SDS011;3254;47.372;8.512;2023-02-01T03:57:06;9.90;;;7.20;;
6442;SDS011;3254;47.372;8.512;2023-02-01T03:59:39;11.27;;;6.95;;
6442;SDS011;3254;47.372;8.512;2023-02-01T04:02:06;6.10;;;5.50;;
6442;SDS011;3254;47.372;8.512;2023-02-01T04:04:33;7.20;;;6.00;;
6442;SDS011;3254;47.372;8.512;2023-02-01T04:07:00;9.95;;;6.40;;
6442;SDS011;3254;47.372;8.512;2023-02-01T04:09:26;5.93;;;5.43;;
6442;SDS011;3254;47.372;8.512;2023-02-01T04:11:52;10.80;;;5.20;;
6442;SDS011;3254;47.372;8.512;2023-02-01T04:14:18;5.70;;;5.20;;
6442;SDS011;3254;47.372;8.512;2023-02-01T04:16:43;5.50;;;5.10;;
6442;SDS011;3254;47.372;8.512;2023-02-01T04:19:09;7.93;;;5.65;;
6442;SDS011;3254;47.372;8.512;2023-02-01T04:21:37;10.85;;;5.07;;
6442;SDS011;3254;47.372;8.512;2023-02-01T04:24:03;6.43;;;5.18;;
6442;SDS011;3254;47.372;8.512;2023-02-01T04:26:29;5.40;;;4.90;;
6442;SDS011;3254;47.372;8.512;2023-02-01T04:28:58;7.85;;;5.30;;
6442;SDS011;3254;47.372;8.512;2023-02-01T04:31:23;7.07;;;5.40;;
6442;SDS011;3254;47.372;8.512;2023-02-01T04:33:52;7.78;;;5.60;;
6442;SDS011;3254;47.372;8.512;2023-02-01T04:36:22;8.68;;;5.75;;
6442;SDS011;3254;47.372;8.512;2023-02-01T04:38:49;5.97;;;5.37;;
6442;SDS011;3254;47.372;8.512;2023-02-01T04:41:18;6.97;;;5.93;;
6442;SDS011;3254;47.372;8.512;2023-02-01T04:43:46;5.80;;;5.20;;
6442;SDS011;3254;47.372;8.512;2023-02-01T04:46:12;5.95;;;5.30;;
6442;SDS011;3254;47.372;8.512;2023-02-01T04:48:37;5.20;;;4.70;;
6442;SDS011;3254;47.372;8.512;2023-02-01T04:51:03;6.07;;;5.40;;
6442;SDS011;3254;47.372;8.512;2023-02-01T04:53:29;6.47;;;5.80;;
6442;SDS011;3254;47.372;8.512;2023-02-01T04:55:54;7.80;;;6.07;;
6442;SDS011;3254;47.372;8.512;2023-02-01T04:58:22;6.07;;;5.53;;
6442;SDS011;3254;47.372;8.512;2023-02-01T05:00:48;8.50;;;5.30;;
6442;SDS011;3254;47.372;8.512;2023-02-01T05:03:17;5.10;;;4.75;;
6442;SDS011;3254;47.372;8.512;2023-02-01T05:05:43;6.07;;;5.03;;
6442;SDS011;3254;47.372;8.512;2023-02-01T05:08:08;6.80;;;5.10;;
6442;SDS011;3254;47.372;8.512;2023-02-01T05:10:35;6.15;;;5.60;;
6442;SDS011;3254;47.372;8.512;2023-02-01T05:13:00;5.93;;;5.53;;
6442;SDS011;3254;47.372;8.512;2023-02-01T05:15:44;8.70;;;5.93;;
6442;SDS011;3254;47.372;8.512;2023-02-01T05:18:11;8.38;;;4.90;;
6442;SDS011;3254;47.372;8.512;2023-02-01T05:20:37;6.78;;;5.25;;
6442;SDS011;3254;47.372;8.512;2023-02-01T05:23:02;6.73;;;6.03;;
6442;SDS011;3254;47.372;8.512;2023-02-01T05:25:28;6.13;;;5.50;;
6442;SDS011;3254;47.372;8.512;2023-02-01T05:27:54;7.93;;;5.67;;
6442;SDS011;3254;47.372;8.512;2023-02-01T05:30:19;5.87;;;5.37;;
6442;SDS011;3254;47.372;8.512;2023-02-01T05:32:45;7.67;;;5.90;;
6442;SDS011;3254;47.372;8.512;2023-02-01T05:35:13;12.32;;;6.53;;
6442;SDS011;3254;47.372;8.512;2023-02-01T05:37:39;5.80;;;5.20;;
6442;SDS011;3254;47.372;8.512;2023-02-01T05:40:05;6.73;;;6.03;;
6442;SDS011;3254;47.372;8.512;2023-02-01T05:42:31;6.47;;;5.88;;
6442;SDS011;3254;47.372;8.512;2023-02-01T05:44:57;8.97;;;6.67;;
6442;SDS011;3254;47.372;8.512;2023-02-01T05:47:22;9.60;;;6.40;;
6442;SDS011;3254;47.372;8.512;2023-02-01T05:49:48;12.10;;;6.70;;
6442;SDS011;3254;47.372;8.512;2023-02-01T05:52:14;7.27;;;6.10;;
6442;SDS011;3254;47.372;8.512;2023-02-01T05:54:44;8.38;;;5.90;;
6442;SDS011;3254;47.372;8.512;2023-02-01T05:57:12;11.63;;;6.32;;
6442;SDS011;3254;47.372;8.512;2023-02-01T05:59:38;9.00;;;6.40;;
6442;SDS011;3254;47.372;8.512;2023-02-01T06:02:09;6.72;;;5.45;;
6442;SDS011;3254;47.372;8.512;2023-02-01T06:04:36;6.07;;;5.28;;
6442;SDS011;3254;47.372;8.512;2023-02-01T06:07:03;8.20;;;6.00;;
6442;SDS011;3254;47.372;8.512;2023-02-01T06:09:29;9.03;;;5.70;;
6442;SDS011;3254;47.372;8.512;2023-02-01T06:11:54;9.27;;;6.13;;
6442;SDS011;3254;47.372;8.512;2023-02-01T06:14:20;5.33;;;4.83;;
6442;SDS011;3254;47.372;8.512;2023-02-01T06:16:46;6.77;;;5.60;;
6442;SDS011;3254;47.372;8.512;2023-02-01T06:19:12;6.90;;;5.63;;
6442;SDS011;3254;47.372;8.512;2023-02-01T06:21:38;6.32;;;5.20;;
6442;SDS011;3254;47.372;8.512;2023-02-01T06:24:04;7.38;;;5.72;;
6442;SDS011;3254;47.372;8.512;2023-02-01T06:26:32;5.07;;;4.55;;
6442;SDS011;3254;47.372;8.512;2023-02-01T06:28:58;8.00;;;5.47;;
6442;SDS011;3254;47.372;8.512;2023-02-01T06:31:23;5.90;;;5.30;;
6442;SDS011;3254;47.372;8.512;2023-02-01T06:33:50;6.18;;;5.15;;
6442;SDS011;3254;47.372;8.512;2023-02-01T06:36:16;10.05;;;6.85;;
6442;SDS011;3254;47.372;8.512;2023-02-01T06:38:45;8.20;;;5.45;;
6442;SDS011;3254;47.372;8.512;2023-02-01T06:41:14;10.02;;;5.97;;
6442;SDS011;3254;47.372;8.512;2023-02-01T06:43:41;9.00;;;5.90;;
6442;SDS011;3254;47.372;8.512;2023-02-01T06:46:07;8.90;;;6.60;;
6442;SDS011;3254;47.372;8.512;2023-02-01T06:48:36;7.95;;;6.57;;
6442;SDS011;3254;47.372;8.512;2023-02-01T06:51:06;10.32;;;6.65;;
6442;SDS011;3254;47.372;8.512;2023-02-01T06:53:41;9.18;;;6.60;;
6442;SDS011;3254;47.372;8.512;2023-02-01T06:56:08;9.20;;;7.20;;
6442;SDS011;3254;47.372;8.512;2023-02-01T06:58:34;10.52;;;7.40;;
6442;SDS011;3254;47.372;8.512;2023-02-01T07:01:07;10.20;;;7.37;;
6442;SDS011;3254;47.372;8.512;2023-02-01T07:03:34;12.68;;;8.75;;
6442;SDS011;3254;47.372;8.512;2023-02-01T07:06:00;16.00;;;8.38;;
6442;SDS011;3254;47.372;8.512;2023-02-01T07:08:26;9.90;;;7.40;;
6442;SDS011;3254;47.372;8.512;2023-02-01T07:10:53;11.38;;;8.20;;
6442;SDS011;3254;47.372;8.512;2023-02-01T07:13:18;8.80;;;7.20;;
6442;SDS011;3254;47.372;8.512;2023-02-01T07:15:44;15.10;;;9.13;;
6442;SDS011;3254;47.372;8.512;2023-02-01T07:18:12;11.68;;;7.80;;
6442;SDS011;3254;47.372;8.512;2023-02-01T07:20:39;28.85;;;8.27;;
6442;SDS011;3254;47.372;8.512;2023-02-01T07:23:05;13.45;;;7.93;;
6442;SDS011;3254;47.372;8.512;2023-02-01T07:25:34;14.48;;;8.45;;
6442;SDS011;3254;47.372;8.512;2023-02-01T07:28:00;10.80;;;8.40;;
6442;SDS011;3254;47.372;8.512;2023-02-01T07:30:25;10.53;;;7.40;;
6442;SDS011;3254;47.372;8.512;2023-02-01T07:32:51;16.00;;;9.27;;
6442;SDS011;3254;47.372;8.512;2023-02-01T07:35:16;14.00;;;9.50;;
6442;SDS011;3254;47.372;8.512;2023-02-01T07:37:42;13.90;;;9.50;;
6442;SDS011;3254;47.372;8.512;2023-02-01T07:40:10;15.65;;;9.75;;
6442;SDS011;3254;47.372;8.512;2023-02-01T07:42:36;14.48;;;9.68;;
6442;SDS011;3254;47.372;8.512;2023-02-01T07:45:03;17.70;;;9.63;;
6442;SDS011;3254;47.372;8.512;2023-02-01T07:47:29;15.35;;;9.82;;
6442;SDS011;3254;47.372;8.512;2023-02-01T07:49:55;14.07;;;9.53;;
6442;SDS011;3254;47.372;8.512;2023-02-01T07:52:20;17.73;;;10.50;;
6442;SDS011;3254;47.372;8.512;2023-02-01T07:54:46;10.40;;;7.80;;
6442;SDS011;3254;47.372;8.512;2023-02-01T07:57:12;13.23;;;8.10;;
6442;SDS011;3254;47.372;8.512;2023-02-01T07:59:40;12.13;;;8.32;;
6442;SDS011;3254;47.372;8.512;2023-02-01T08:02:25;13.05;;;8.30;;
6442;SDS011;3254;47.372;8.512;2023-02-01T08:04:51;17.00;;;8.60;;
6442;SDS011;3254;47.372;8.512;2023-02-01T08:07:17;10.17;;;7.90;;
6442;SDS011;3254;47.372;8.512;2023-02-01T08:09:43;9.07;;;7.00;;
6442;SDS011;3254;47.372;8.512;2023-02-01T08:12:09;15.40;;;8.63;;
6442;SDS011;3254;47.372;8.512;2023-02-01T08:14:36;11.02;;;8.00;;
6442;SDS011;3254;47.372;8.512;2023-02-01T08:17:02;10.80;;;7.30;;
6442;SDS011;3254;47.372;8.512;2023-02-01T08:19:28;13.88;;;7.75;;
6442;SDS011;3254;47.372;8.512;2023-02-01T08:21:55;10.00;;;6.80;;
6442;SDS011;3254;47.372;8.512;2023-02-01T08:24:24;11.50;;;7.07;;
6442;SDS011;3254;47.372;8.512;2023-02-01T08:26:50;13.47;;;7.20;;
6442;SDS011;3254;47.372;8.512;2023-02-01T08:29:16;10.00;;;7.05;;
6442;SDS011;3254;47.372;8.512;2023-02-01T08:31:42;6.70;;;5.83;;
6442;SDS011;3254;47.372;8.512;2023-02-01T08:34:08;7.07;;;6.38;;
6442;SDS011;3254;47.372;8.512;2023-02-01T08:36:34;8.15;;;6.05;;
6442;SDS011;3254;47.372;8.512;2023-02-01T08:39:00;9.23;;;5.50;;
6442;SDS011;3254;47.372;8.512;2023-02-01T08:41:28;7.13;;;5.85;;
6442;SDS011;3254;47.372;8.512;2023-02-01T08:43:56;8.48;;;5.90;;
6442;SDS011;3254;47.372;8.512;2023-02-01T08:46:25;7.38;;;5.90;;
6442;SDS011;3254;47.372;8.512;2023-02-01T08:48:50;5.18;;;4.70;;
6442;SDS011;3254;47.372;8.512;2023-02-01T08:51:17;6.20;;;5.60;;
6442;SDS011;3254;47.372;8.512;2023-02-01T08:53:44;6.40;;;5.80;;
6442;SDS011;3254;47.372;8.512;2023-02-01T08:56:12;8.00;;;5.87;;
6442;SDS011;3254;47.372;8.512;2023-02-01T08:58:40;5.88;;;5.22;;
6442;SDS011;3254;47.372;8.512;2023-02-01T09:01:06;4.73;;;4.23;;
6442;SDS011;3254;47.372;8.512;2023-02-01T09:03:34;5.72;;;5.13;;
6442;SDS011;3254;47.372;8.512;2023-02-01T09:06:03;5.43;;;4.93;;
6442;SDS011;3254;47.372;8.512;2023-02-01T09:08:30;4.70;;;4.30;;
6442;SDS011;3254;47.372;8.512;2023-02-01T09:10:58;5.25;;;4.75;;
6442;SDS011;3254;47.372;8.512;2023-02-01T09:13:29;4.40;;;4.07;;
6442;SDS011;3254;47.372;8.512;2023-02-01T09:15:55;5.70;;;5.20;;
6442;SDS011;3254;47.372;8.512;2023-02-01T09:18:21;4.13;;;3.80;;
6442;SDS011;3254;47.372;8.512;2023-02-01T09:20:47;4.20;;;3.77;;
6442;SDS011;3254;47.372;8.512;2023-02-01T09:23:13;5.83;;;4.83;;
6442;SDS011;3254;47.372;8.512;2023-02-01T09:25:39;8.13;;;4.28;;
6442;SDS011;3254;47.372;8.512;2023-02-01T09:28:08;6.13;;;4.45;;
6442;SDS011;3254;47.372;8.512;2023-02-01T09:30:36;4.38;;;3.97;;
6442;SDS011;3254;47.372;8.512;2023-02-01T09:33:02;5.55;;;3.80;;
6442;SDS011;3254;47.372;8.512;2023-02-01T09:35:31;3.65;;;3.08;;
6442;SDS011;3254;47.372;8.512;2023-02-01T09:37:57;4.60;;;3.70;;
6442;SDS011;3254;47.372;8.512;2023-02-01T09:40:27;6.97;;;4.28;;
6442;SDS011;3254;47.372;8.512;2023-02-01T09:48:49;10.65;;;3.53;;
6442;SDS011;3254;47.372;8.512;2023-02-01T09:51:20;3.50;;;3.20;;
6442;SDS011;3254;47.372;8.512;2023-02-01T09:53:59;4.50;;;4.10;;
6442;SDS011;3254;47.372;8.512;2023-02-01T09:56:35;4.07;;;3.67;;
6442;SDS011;3254;47.372;8.512;2023-02-01T10:01:55;2.75;;;2.55;;
6442;SDS011;3254;47.372;8.512;2023-02-01T10:04:24;3.05;;;2.85;;
6442;SDS011;3254;47.372;8.512;2023-02-01T10:07:06;3.03;;;2.72;;
6442;SDS011;3254;47.372;8.512;2023-02-01T10:27:08;2.75;;;2.55;;
6442;SDS011;3254;47.372;8.512;2023-02-01T10:29:39;3.55;;;3.25;;
6442;SDS011;3254;47.372;8.512;2023-02-01T10:32:11;3.05;;;2.85;;
6442;SDS011;3254;47.372;8.512;2023-02-01T10:34:40;2.90;;;2.70;;
6442;SDS011;3254;47.372;8.512;2023-02-01T10:37:17;3.03;;;2.92;;
6442;SDS011;3254;47.372;8.512;2023-02-01T10:39:58;3.03;;;2.78;;
6442;SDS011;3254;47.372;8.512;2023-02-01T10:42:27;3.45;;;3.10;;
6442;SDS011;3254;47.372;8.512;2023-02-01T10:44:55;3.25;;;3.05;;
6442;SDS011;3254;47.372;8.512;2023-02-01T10:47:24;2.90;;;2.80;;
6442;SDS011;3254;47.372;8.512;2023-02-01T10:52:49;3.63;;;3.43;;
6442;SDS011;3254;47.372;8.512;2023-02-01T10:55:34;2.77;;;2.63;;
6442;SDS011;3254;47.372;8.512;2023-02-01T10:58:02;3.00;;;2.80;;
6442;SDS011;3254;47.372;8.512;2023-02-01T11:00:38;3.20;;;2.97;;
6442;SDS011;3254;47.372;8.512;2023-02-01T11:03:30;3.37;;;3.17;;
6442;SDS011;3254;47.372;8.512;2023-02-01T11:06:21;2.45;;;2.35;;
6442;SDS011;3254;47.372;8.512;2023-02-01T11:08:52;3.45;;;2.45;;
6442;SDS011;3254;47.372;8.512;2023-02-01T11:11:22;4.07;;;2.17;;
6442;SDS011;3254;47.372;8.512;2023-02-01T11:14:32;2.00;;;1.90;;
6442;SDS011;3254;47.372;8.512;2023-02-01T11:16:55;2.30;;;2.17;;
6442;SDS011;3254;47.372;8.512;2023-02-01T11:19:25;4.30;;;2.70;;
6442;SDS011;3254;47.372;8.512;2023-02-01T11:21:57;4.00;;;2.77;;
6442;SDS011;3254;47.372;8.512;2023-02-01T11:24:25;2.83;;;2.60;;
6442;SDS011;3254;47.372;8.512;2023-02-01T11:27:01;3.00;;;2.80;;
6442;SDS011;3254;47.372;8.512;2023-02-01T11:29:33;4.05;;;2.78;;
6442;SDS011;3254;47.372;8.512;2023-02-01T11:32:02;2.70;;;2.60;;
6442;SDS011;3254;47.372;8.512;2023-02-01T11:37:17;2.90;;;2.70;;
6442;SDS011;3254;47.372;8.512;2023-02-01T11:39:53;3.07;;;2.87;;
6442;SDS011;3254;47.372;8.512;2023-02-01T11:42:24;2.90;;;2.80;;
6442;SDS011;3254;47.372;8.512;2023-02-01T11:44:51;4.20;;;2.80;;
6442;SDS011;3254;47.372;8.512;2023-02-01T11:47:46;3.77;;;3.43;;
6442;SDS011;3254;47.372;8.512;2023-02-01T11:50:17;3.80;;;3.20;;
6442;SDS011;3254;47.372;8.512;2023-02-01T11:52:55;3.53;;;3.13;;
6442;SDS011;3254;47.372;8.512;2023-02-01T12:04:24;2.60;;;2.40;;
6442;SDS011;3254;47.372;8.512;2023-02-01T12:10:38;5.00;;;2.70;;
6442;SDS011;3254;47.372;8.512;2023-02-01T12:15:52;3.77;;;3.47;;
6442;SDS011;3254;47.372;8.512;2023-02-01T12:38:08;3.63;;;2.73;;
6442;SDS011;3254;47.372;8.512;2023-02-01T12:51:50;3.53;;;3.27;;
6442;SDS011;3254;47.372;8.512;2023-02-01T12:57:30;8.00;;;3.23;;
6442;SDS011;3254;47.372;8.512;2023-02-01T13:00:17;3.07;;;2.93;;
6442;SDS011;3254;47.372;8.512;2023-02-01T13:05:56;8.57;;;2.60;;
6442;SDS011;3254;47.372;8.512;2023-02-01T13:08:46;3.43;;;2.67;;
6442;SDS011;3254;47.372;8.512;2023-02-01T13:16:52;2.40;;;2.20;;
6442;SDS011;3254;47.372;8.512;2023-02-01T13:22:39;1.90;;;1.80;;
6442;SDS011;3254;47.372;8.512;2023-02-01T13:27:35;3.20;;;1.70;;
6442;SDS011;3254;47.372;8.512;2023-02-01T13:41:35;8.83;;;2.00;;
6442;SDS011;3254;47.372;8.512;2023-02-01T13:44:11;2.20;;;1.33;;
6442;SDS011;3254;47.372;8.512;2023-02-01T13:46:41;6.40;;;1.70;;
6442;SDS011;3254;47.372;8.512;2023-02-01T13:49:29;1.70;;;1.60;;
6442;SDS011;3254;47.372;8.512;2023-02-01T13:52:01;3.87;;;1.80;;
6442;SDS011;3254;47.372;8.512;2023-02-01T13:54:35;4.60;;;2.40;;
6442;SDS011;3254;47.372;8.512;2023-02-01T13:57:03;5.30;;;1.93;;
6442;SDS011;3254;47.372;8.512;2023-02-01T14:05:02;3.70;;;1.90;;
6442;SDS011;3254;47.372;8.512;2023-02-01T14:07:30;2.23;;;1.63;;
6442;SDS011;3254;47.372;8.512;2023-02-01T14:09:56;3.43;;;1.67;;
6442;SDS011;3254;47.372;8.512;2023-02-01T14:15:20;1.43;;;1.33;;
6442;SDS011;3254;47.372;8.512;2023-02-01T14:17:53;3.37;;;1.87;;
6442;SDS011;3254;47.372;8.512;2023-02-01T14:23:11;3.93;;;1.30;;
6442;SDS011;3254;47.372;8.512;2023-02-01T14:25:44;3.73;;;1.97;;
6442;SDS011;3254;47.372;8.512;2023-02-01T14:28:23;1.73;;;1.33;;
6442;SDS011;3254;47.372;8.512;2023-02-01T14:30:51;3.73;;;1.60;;
6442;SDS011;3254;47.372;8.512;2023-02-01T14:33:23;2.80;;;1.40;;
6442;SDS011;3254;47.372;8.512;2023-02-01T14:36:02;2.60;;;1.60;;
6442;SDS011;3254;47.372;8.512;2023-02-01T14:38:30;1.67;;;1.10;;
6442;SDS011;3254;47.372;8.512;2023-02-01T14:41:10;1.83;;;1.30;;
6442;SDS011;3254;47.372;8.512;2023-02-01T14:49:30;2.78;;;1.65;;
6442;SDS011;3254;47.372;8.512;2023-02-01T14:51:59;2.65;;;1.25;;
6442;SDS011;3254;47.372;8.512;2023-02-01T14:54:30;2.63;;;1.35;;
6442;SDS011;3254;47.372;8.512;2023-02-01T14:56:56;3.03;;;1.53;;
6442;SDS011;3254;47.372;8.512;2023-02-01T14:59:24;8.98;;;1.30;;
6442;SDS011;3254;47.372;8.512;2023-02-01T15:01:58;5.47;;;1.48;;
6442;SDS011;3254;47.372;8.512;2023-02-01T15:04:26;2.70;;;1.50;;
6442;SDS011;3254;47.372;8.512;2023-02-01T15:06:56;8.93;;;1.70;;
6442;SDS011;3254;47.372;8.512;2023-02-01T15:09:27;8.88;;;1.42;;
6442;SDS011;3254;47.372;8.512;2023-02-01T15:14:37;5.32;;;2.10;;
6442;SDS011;3254;47.372;8.512;2023-02-01T15:17:25;4.50;;;1.70;;
6442;SDS011;3254;47.372;8.512;2023-02-01T15:20:13;3.80;;;1.58;;
6442;SDS011;3254;47.372;8.512;2023-02-01T15:25:28;7.87;;;1.93;;
6442;SDS011;3254;47.372;8.512;2023-02-01T15:28:00;2.37;;;1.70;;
6442;SDS011;3254;47.372;8.512;2023-02-01T15:30:28;4.10;;;1.60;;
6442;SDS011;3254;47.372;8.512;2023-02-01T15:33:13;6.47;;;1.73;;
6442;SDS011;3254;47.372;8.512;2023-02-01T15:38:19;5.10;;;2.80;;
6442;SDS011;3254;47.372;8.512;2023-02-01T15:40:55;6.30;;;1.50;;
6442;SDS011;3254;47.372;8.512;2023-02-01T15:43:25;6.30;;;1.97;;
6442;SDS011;3254;47.372;8.512;2023-02-01T15:45:55;3.70;;;1.57;;
6442;SDS011;3254;47.372;8.512;2023-02-01T15:48:27;4.97;;;1.98;;
6442;SDS011;3254;47.372;8.512;2023-02-01T15:51:00;6.23;;;1.90;;
6442;SDS011;3254;47.372;8.512;2023-02-01T15:53:26;4.60;;;1.65;;
6442;SDS011;3254;47.372;8.512;2023-02-01T15:55:57;3.42;;;1.70;;
6442;SDS011;3254;47.372;8.512;2023-02-01T15:58:25;3.80;;;2.05;;
6442;SDS011;3254;47.372;8.512;2023-02-01T16:01:02;6.05;;;1.48;;
6442;SDS011;3254;47.372;8.512;2023-02-01T16:03:34;3.35;;;1.75;;
6442;SDS011;3254;47.372;8.512;2023-02-01T16:08:49;2.50;;;1.75;;
6442;SDS011;3254;47.372;8.512;2023-02-01T16:11:26;6.25;;;2.08;;
6442;SDS011;3254;47.372;8.512;2023-02-01T16:13:57;7.03;;;1.80;;
6442;SDS011;3254;47.372;8.512;2023-02-01T16:16:23;4.82;;;2.13;;
6442;SDS011;3254;47.372;8.512;2023-02-01T16:18:53;4.82;;;1.73;;
6442;SDS011;3254;47.372;8.512;2023-02-01T16:21:19;9.55;;;1.90;;
6442;SDS011;3254;47.372;8.512;2023-02-01T16:23:48;2.87;;;2.07;;
6442;SDS011;3254;47.372;8.512;2023-02-01T16:26:15;8.77;;;1.70;;
6442;SDS011;3254;47.372;8.512;2023-02-01T16:28:41;3.63;;;1.60;;
6442;SDS011;3254;47.372;8.512;2023-02-01T16:31:17;3.47;;;1.50;;
6442;SDS011;3254;47.372;8.512;2023-02-01T16:33:51;1.63;;;1.50;;
6442;SDS011;3254;47.372;8.512;2023-02-01T16:36:17;8.93;;;1.70;;
6442;SDS011;3254;47.372;8.512;2023-02-01T16:38:44;5.57;;;2.03;;
6442;SDS011;3254;47.372;8.512;2023-02-01T16:41:13;5.72;;;1.98;;
6442;SDS011;3254;47.372;8.512;2023-02-01T16:43:40;7.47;;;2.47;;
6442;SDS011;3254;47.372;8.512;2023-02-01T16:46:08;3.00;;;1.80;;
6442;SDS011;3254;47.372;8.512;2023-02-01T16:48:50;13.35;;;1.92;;
6442;SDS011;3254;47.372;8.512;2023-02-01T16:51:19;9.18;;;1.60;;
6442;SDS011;3254;47.372;8.512;2023-02-01T16:53:46;2.30;;;1.77;;
6442;SDS011;3254;47.372;8.512;2023-02-01T16:56:19;9.53;;;1.97;;
6442;SDS011;3254;47.372;8.512;2023-02-01T16:58:46;6.03;;;1.70;;
6442;SDS011;3254;47.372;8.512;2023-02-01T17:01:15;2.85;;;1.67;;
6442;SDS011;3254;47.372;8.512;2023-02-01T17:03:44;1.80;;;1.30;;
6442;SDS011;3254;47.372;8.512;2023-02-01T17:06:11;2.85;;;1.77;;
6442;SDS011;3254;47.372;8.512;2023-02-01T17:08:41;3.55;;;1.45;;
6442;SDS011;3254;47.372;8.512;2023-02-01T17:11:09;2.08;;;1.65;;
6442;SDS011;3254;47.372;8.512;2023-02-01T17:13:37;3.03;;;1.65;;
6442;SDS011;3254;47.372;8.512;2023-02-01T17:16:08;3.50;;;1.80;;
6442;SDS011;3254;47.372;8.512;2023-02-01T17:18:47;1.42;;;1.33;;
6442;SDS011;3254;47.372;8.512;2023-02-01T17:21:18;1.30;;;1.20;;
6442;SDS011;3254;47.372;8.512;2023-02-01T17:23:46;2.75;;;1.67;;
6442;SDS011;3254;47.372;8.512;2023-02-01T17:26:11;4.30;;;2.40;;
6442;SDS011;3254;47.372;8.512;2023-02-01T17:28:37;5.73;;;1.50;;
6442;SDS011;3254;47.372;8.512;2023-02-01T17:31:03;2.90;;;1.90;;
6442;SDS011;3254;47.372;8.512;2023-02-01T17:33:30;2.13;;;1.75;;
6442;SDS011;3254;47.372;8.512;2023-02-01T17:35:58;3.35;;;1.50;;
6442;SDS011;3254;47.372;8.512;2023-02-01T17:38:24;4.33;;;1.63;;
6442;SDS011;3254;47.372;8.512;2023-02-01T17:40:50;1.60;;;1.50;;
6442;SDS011;3254;47.372;8.512;2023-02-01T17:43:18;2.80;;;1.42;;
6442;SDS011;3254;47.372;8.512;2023-02-01T17:48:20;5.45;;;1.90;;
6442;SDS011;3254;47.372;8.512;2023-02-01T17:50:47;8.75;;;1.60;;
6442;SDS011;3254;47.372;8.512;2023-02-01T17:53:18;5.35;;;2.17;;
6442;SDS011;3254;47.372;8.512;2023-02-01T17:55:45;7.03;;;1.85;;
6442;SDS011;3254;47.372;8.512;2023-02-01T17:58:16;8.52;;;1.80;;
6442;SDS011;3254;47.372;8.512;2023-02-01T18:00:42;5.30;;;1.50;;
6442;SDS011;3254;47.372;8.512;2023-02-01T18:03:28;8.20;;;1.63;;
6442;SDS011;3254;47.372;8.512;2023-02-01T18:05:57;2.72;;;1.75;;
6442;SDS011;3254;47.372;8.512;2023-02-01T18:08:24;3.28;;;1.67;;
6442;SDS011;3254;47.372;8.512;2023-02-01T18:10:52;1.90;;;1.45;;
6442;SDS011;3254;47.372;8.512;2023-02-01T18:13:20;6.18;;;1.85;;
6442;SDS011;3254;47.372;8.512;2023-02-01T18:15:46;5.80;;;2.05;;
6442;SDS011;3254;47.372;8.512;2023-02-01T18:18:12;3.23;;;1.80;;
6442;SDS011;3254;47.372;8.512;2023-02-01T18:20:39;1.60;;;1.50;;
6442;SDS011;3254;47.372;8.512;2023-02-01T18:23:16;2.65;;;1.40;;